Time;durP1;ratioP1;P1;durP2;ratioP2;P2;SDS_P1;SDS_P2;PMS_P1;PMS_P2;Temp;Humidity;BMP_temperature;BMP_pressure;BME280_temperature;BME280_humidity;BME280_pressure;Samples;Min_cycle;Max_cycle;Signal;HPM_P1;HPM_P2
2024/04/06 00:00:43;;;;;;;3.67;1.25;;;;;;;;;;5113173;27;20054;-53
2024/04/06 00:03:09;;;;;;;2.78;1.08;;;;;;;;;;5110701;28;20426;-51
2024/04/06 00:05:34;;;;;;;3.28;1.00;;;;;;;;;;5109833;28;20062;-53
2024/04/06 00:08:00;;;;;;;2.65;1.10;;;;;;;;;;5110486;28;20028;-48
2024/04/06 00:10:25;;;;;;;2.30;0.90;;;;;;;;;;5110821;28;20039;-52
2024/04/06 00:12:50;;;;;;;2.30;0.90;;;;;;;;;;5110627;28;20085;-49
2024/04/06 00:15:16;;;;;;;5.05;1.20;;;;;;;;;;5110445;28;20398;-52
2024/04/06 00:17:42;;;;;;;2.13;1.00;;;;;;;;;;5106390;28;20494;-50
2024/04/06 00:20:07;;;;;;;2.47;0.90;;;;;;;;;;5110407;28;20122;-52
2024/04/06 00:22:32;;;;;;;3.10;0.90;;;;;;;;;;5110160;28;20039;-49
2024/04/06 00:24:58;;;;;;;2.15;0.80;;;;;;;;;;5110332;28;20530;-50
2024/04/06 00:27:23;;;;;;;2.97;0.85;;;;;;;;;;5110286;28;20471;-51
2024/04/06 00:29:48;;;;;;;2.67;1.23;;;;;;;;;;5110220;28;20481;-51
2024/04/06 00:32:14;;;;;;;2.38;1.02;;;;;;;;;;5110598;28;20031;-48
2024/04/06 00:34:39;;;;;;;3.45;1.10;;;;;;;;;;5112362;28;20481;-52
2024/04/06 00:37:07;;;;;;;2.40;0.82;;;;;;;;;;5114458;28;20466;-51
2024/04/06 00:39:32;;;;;;;3.03;1.17;;;;;;;;;;5114183;28;20397;-52
2024/04/06 00:41:57;;;;;;;4.90;0.90;;;;;;;;;;5114430;28;20172;-50
2024/04/06 00:44:24;;;;;;;2.53;0.80;;;;;;;;;;5113602;28;20047;-49
2024/04/06 00:46:52;;;;;;;2.63;1.00;;;;;;;;;;5113984;27;20040;-55
2024/04/06 00:49:18;;;;;;;2.47;0.90;;;;;;;;;;5109604;28;20047;-49
2024/04/06 00:51:43;;;;;;;2.45;1.15;;;;;;;;;;5109683;28;20034;-55
2024/04/06 00:54:09;;;;;;;2.28;0.77;;;;;;;;;;5113840;28;20039;-52
2024/04/06 00:56:34;;;;;;;2.13;0.80;;;;;;;;;;5114258;28;20067;-53
2024/04/06 00:58:59;;;;;;;3.17;0.93;;;;;;;;;;5120771;27;20071;-49
2024/04/06 01:01:25;;;;;;;2.38;1.05;;;;;;;;;;5113900;28;20081;-50
2024/04/06 01:03:50;;;;;;;1.98;0.90;;;;;;;;;;5110831;28;20047;-51
2024/04/06 01:06:16;;;;;;;2.20;0.90;;;;;;;;;;5114100;28;20031;-49
2024/04/06 01:08:42;;;;;;;2.63;1.02;;;;;;;;;;5113908;28;20039;-61
2024/04/06 01:11:07;;;;;;;2.08;0.95;;;;;;;;;;5113338;28;20050;-57
2024/04/06 01:13:33;;;;;;;1.95;0.80;;;;;;;;;;5113987;28;20031;-58
2024/04/06 01:15:58;;;;;;;3.20;0.95;;;;;;;;;;5113860;28;20039;-58
2024/04/06 01:18:23;;;;;;;3.10;1.05;;;;;;;;;;5113366;28;20467;-59
2024/04/06 01:20:49;;;;;;;2.47;0.90;;;;;;;;;;5113768;28;20490;-54
2024/04/06 01:23:15;;;;;;;2.33;0.82;;;;;;;;;;5112656;28;20039;-59
2024/04/06 01:25:40;;;;;;;2.47;0.80;;;;;;;;;;5112993;28;20032;-61
2024/04/06 01:28:06;;;;;;;1.67;0.75;;;;;;;;;;5113708;28;20474;-59
2024/04/06 01:30:31;;;;;;;2.08;0.80;;;;;;;;;;5113465;28;20649;-62
2024/04/06 01:32:57;;;;;;;3.55;1.10;;;;;;;;;;5102863;28;20493;-61
2024/04/06 01:35:22;;;;;;;1.58;0.70;;;;;;;;;;5113216;28;20415;-58
2024/04/06 01:37:48;;;;;;;2.67;1.10;;;;;;;;;;5113354;28;20047;-56
2024/04/06 01:40:13;;;;;;;2.22;0.85;;;;;;;;;;5113565;28;20023;-61
2024/04/06 01:42:38;;;;;;;2.45;0.82;;;;;;;;;;5112806;28;20467;-59
2024/04/06 01:45:07;;;;;;;5.65;1.00;;;;;;;;;;5111681;28;20061;-60
2024/04/06 01:47:33;;;;;;;1.73;0.75;;;;;;;;;;5113281;28;20034;-59
2024/04/06 01:50:00;;;;;;;1.58;0.70;;;;;;;;;;5112463;28;20534;-61
2024/04/06 01:52:26;;;;;;;2.65;0.70;;;;;;;;;;5111825;28;20036;-61
2024/04/06 01:54:51;;;;;;;2.92;0.80;;;;;;;;;;5113094;28;20371;-59
2024/04/06 01:57:16;;;;;;;2.10;0.90;;;;;;;;;;5112858;28;20040;-60
2024/04/06 01:59:43;;;;;;;1.40;0.60;;;;;;;;;;5113169;27;20031;-58
2024/04/06 02:02:09;;;;;;;1.23;0.57;;;;;;;;;;5113192;28;20023;-59
2024/04/06 02:04:34;;;;;;;2.03;0.70;;;;;;;;;;5112669;28;20035;-61
2024/04/06 02:06:59;;;;;;;1.75;0.70;;;;;;;;;;5112614;28;20039;-60
2024/04/06 02:09:25;;;;;;;1.42;0.70;;;;;;;;;;5110710;28;20028;-58
2024/04/06 02:11:50;;;;;;;1.45;0.70;;;;;;;;;;5112836;28;20040;-61
2024/04/06 02:14:15;;;;;;;1.33;0.60;;;;;;;;;;5112241;28;20443;-58
2024/04/06 02:16:41;;;;;;;1.33;0.63;;;;;;;;;;5112675;28;20572;-57
2024/04/06 02:19:06;;;;;;;1.95;0.70;;;;;;;;;;5112662;28;20040;-61
2024/04/06 02:21:31;;;;;;;1.48;0.75;;;;;;;;;;5112101;28;20111;-58
2024/04/06 02:23:57;;;;;;;1.27;0.70;;;;;;;;;;5111888;28;20055;-59
2024/04/06 02:26:22;;;;;;;0.73;0.52;;;;;;;;;;5112560;28;20104;-57
2024/04/06 02:28:47;;;;;;;1.52;0.73;;;;;;;;;;5111646;28;20067;-58
2024/04/06 02:31:13;;;;;;;1.75;0.70;;;;;;;;;;5112195;28;20051;-47
2024/04/06 02:33:38;;;;;;;2.78;0.82;;;;;;;;;;5112317;28;20107;-53
2024/04/06 02:36:04;;;;;;;1.35;0.68;;;;;;;;;;5110925;28;20118;-52
2024/04/06 02:38:30;;;;;;;1.80;0.80;;;;;;;;;;5111766;28;20209;-49
2024/04/06 02:40:55;;;;;;;3.97;1.05;;;;;;;;;;5112262;28;20039;-52
2024/04/06 02:43:20;;;;;;;2.25;0.90;;;;;;;;;;5112091;28;20035;-51
2024/04/06 02:45:46;;;;;;;0.68;0.55;;;;;;;;;;5111664;28;20032;-48
2024/04/06 02:48:11;;;;;;;1.40;0.80;;;;;;;;;;5111644;28;20106;-52
2024/04/06 02:50:37;;;;;;;2.10;0.90;;;;;;;;;;5111767;28;20039;-50
2024/04/06 02:53:04;;;;;;;1.83;0.68;;;;;;;;;;5111539;28;20023;-49
2024/04/06 02:55:29;;;;;;;1.40;0.70;;;;;;;;;;5111277;28;20084;-53
2024/04/06 02:57:54;;;;;;;1.20;0.65;;;;;;;;;;5113129;27;20047;-51
2024/04/06 03:00:20;;;;;;;2.38;0.80;;;;;;;;;;5117527;27;20020;-48
2024/04/06 03:02:45;;;;;;;1.30;0.55;;;;;;;;;;5111410;28;20031;-53
2024/04/06 03:05:10;;;;;;;1.52;0.70;;;;;;;;;;5111718;28;20043;-48
2024/04/06 03:07:36;;;;;;;2.78;0.52;;;;;;;;;;5111523;28;20035;-49
2024/04/06 03:10:01;;;;;;;1.30;0.60;;;;;;;;;;5110272;28;20046;-51
2024/04/06 03:12:27;;;;;;;1.88;0.68;;;;;;;;;;5110001;28;20043;-55
2024/04/06 03:14:52;;;;;;;1.55;0.63;;;;;;;;;;5111294;28;20032;-59
2024/04/06 03:17:17;;;;;;;1.08;0.60;;;;;;;;;;5111218;28;20031;-58
2024/04/06 03:19:43;;;;;;;1.13;0.50;;;;;;;;;;5110973;28;20032;-57
2024/04/06 03:22:08;;;;;;;1.38;0.60;;;;;;;;;;5110510;28;20502;-61
2024/04/06 03:24:33;;;;;;;1.30;0.60;;;;;;;;;;5110800;28;20110;-58
2024/04/06 03:26:59;;;;;;;1.50;0.70;;;;;;;;;;5111296;28;20044;-58
2024/04/06 03:29:24;;;;;;;1.77;0.70;;;;;;;;;;5111478;28;20027;-61
2024/04/06 03:31:49;;;;;;;1.80;0.80;;;;;;;;;;5111446;28;20024;-52
2024/04/06 03:34:15;;;;;;;1.42;0.70;;;;;;;;;;5110692;28;20043;-51
2024/04/06 03:36:40;;;;;;;1.88;0.50;;;;;;;;;;5110812;28;20066;-51
2024/04/06 03:39:06;;;;;;;0.88;0.60;;;;;;;;;;5111196;28;20459;-50
2024/04/06 03:41:31;;;;;;;1.38;0.70;;;;;;;;;;5110491;28;20089;-58
2024/04/06 03:43:56;;;;;;;1.35;0.50;;;;;;;;;;5108559;28;20110;-51
2024/04/06 03:46:28;;;;;;;1.77;0.70;;;;;;;;;;5110928;28;20471;-49
2024/04/06 03:48:53;;;;;;;1.48;0.60;;;;;;;;;;5109034;28;20249;-49
2024/04/06 03:51:18;;;;;;;1.45;0.65;;;;;;;;;;5110767;28;20019;-52
2024/04/06 03:53:44;;;;;;;0.98;0.52;;;;;;;;;;5110955;28;20032;-48
2024/04/06 03:56:10;;;;;;;1.20;0.60;;;;;;;;;;5110791;28;20478;-51
2024/04/06 03:58:35;;;;;;;1.23;0.60;;;;;;;;;;5112921;27;20103;-53
2024/04/06 04:01:00;;;;;;;1.65;0.70;;;;;;;;;;5111051;28;20501;-53
2024/04/06 04:03:26;;;;;;;1.63;0.70;;;;;;;;;;5110666;28;20032;-50
2024/04/06 04:05:51;;;;;;;1.60;0.77;;;;;;;;;;5110371;28;20804;-54
2024/04/06 04:08:17;;;;;;;0.63;0.40;;;;;;;;;;5113295;28;20053;-52
2024/04/06 04:10:42;;;;;;;2.08;0.60;;;;;;;;;;5110448;28;20088;-50
2024/04/06 04:13:11;;;;;;;1.17;0.60;;;;;;;;;;5117272;27;20028;-51
2024/04/06 04:15:40;;;;;;;1.63;0.70;;;;;;;;;;5117569;27;20028;-53
2024/04/06 04:18:06;;;;;;;1.70;0.70;;;;;;;;;;5117680;27;20122;-52
2024/04/06 04:20:32;;;;;;;1.27;0.70;;;;;;;;;;5117024;27;20514;-53
2024/04/06 04:22:58;;;;;;;1.98;0.80;;;;;;;;;;5116408;28;20035;-51
2024/04/06 04:25:23;;;;;;;1.58;0.80;;;;;;;;;;5117322;28;20510;-50
2024/04/06 04:27:49;;;;;;;1.15;0.60;;;;;;;;;;5115845;27;20042;-52
2024/04/06 04:30:15;;;;;;;2.83;0.60;;;;;;;;;;5117273;28;20402;-50
2024/04/06 04:32:41;;;;;;;1.70;0.70;;;;;;;;;;5117533;27;20039;-52
2024/04/06 04:35:07;;;;;;;1.10;0.70;;;;;;;;;;5098882;28;20035;-51
2024/04/06 04:37:32;;;;;;;1.25;0.63;;;;;;;;;;5117160;28;20112;-52
2024/04/06 04:39:57;;;;;;;1.35;0.68;;;;;;;;;;5117295;28;20039;-51
2024/04/06 04:42:23;;;;;;;1.25;0.63;;;;;;;;;;5115747;28;20459;-49
2024/04/06 04:44:48;;;;;;;1.10;0.63;;;;;;;;;;5116716;28;20038;-52
2024/04/06 04:47:13;;;;;;;0.40;0.40;;;;;;;;;;5117090;28;20411;-53
2024/04/06 04:49:39;;;;;;;1.58;0.63;;;;;;;;;;5115881;28;20393;-48
2024/04/06 04:52:04;;;;;;;2.10;0.90;;;;;;;;;;5116673;28;20027;-50
2024/04/06 04:54:29;;;;;;;1.20;0.70;;;;;;;;;;5117219;28;20042;-52
2024/04/06 04:56:55;;;;;;;1.13;0.70;;;;;;;;;;5117203;27;20485;-49
2024/04/06 04:59:20;;;;;;;1.30;0.63;;;;;;;;;;5123530;27;20119;-52
2024/04/06 05:01:46;;;;;;;1.42;0.70;;;;;;;;;;5115979;28;20098;-49
2024/04/06 05:04:12;;;;;;;1.90;0.63;;;;;;;;;;5117082;28;20028;-55
2024/04/06 05:06:37;;;;;;;1.45;0.70;;;;;;;;;;5117056;28;20378;-54
2024/04/06 05:09:06;;;;;;;1.27;0.65;;;;;;;;;;5114269;28;20467;-51
2024/04/06 05:11:32;;;;;;;1.30;0.60;;;;;;;;;;5116930;27;20528;-51
2024/04/06 05:13:57;;;;;;;1.80;0.70;;;;;;;;;;5117072;28;20035;-53
2024/04/06 05:16:23;;;;;;;1.42;0.70;;;;;;;;;;5116765;27;20044;-50
2024/04/06 05:18:48;;;;;;;1.75;0.88;;;;;;;;;;5116821;28;20035;-50
2024/04/06 05:21:13;;;;;;;3.35;0.70;;;;;;;;;;5113191;28;20032;-52
2024/04/06 05:23:39;;;;;;;1.00;0.60;;;;;;;;;;5113260;28;20149;-52
2024/04/06 05:26:04;;;;;;;2.13;0.70;;;;;;;;;;5113697;28;20110;-50
2024/04/06 05:28:29;;;;;;;1.48;0.77;;;;;;;;;;5113754;28;20034;-53
2024/04/06 05:30:55;;;;;;;0.85;0.52;;;;;;;;;;5111683;28;20035;-50
2024/04/06 05:33:21;;;;;;;0.95;0.60;;;;;;;;;;5113480;28;20055;-49
2024/04/06 05:35:48;;;;;;;1.63;0.70;;;;;;;;;;5112152;28;20491;-52
2024/04/06 05:38:14;;;;;;;1.58;0.70;;;;;;;;;;5112309;28;20039;-51
2024/04/06 05:40:42;;;;;;;1.50;0.60;;;;;;;;;;5111790;28;20028;-50
2024/04/06 05:43:08;;;;;;;1.17;0.63;;;;;;;;;;5113448;28;20070;-53
2024/04/06 05:45:33;;;;;;;1.20;0.70;;;;;;;;;;5113394;28;20547;-51
2024/04/06 05:48:03;;;;;;;1.40;0.73;;;;;;;;;;5112834;28;20047;-52
2024/04/06 05:50:32;;;;;;;2.10;0.90;;;;;;;;;;5113421;28;20047;-52
2024/04/06 05:52:58;;;;;;;3.15;0.70;;;;;;;;;;5104403;28;20093;-50
2024/04/06 05:55:23;;;;;;;3.33;0.90;;;;;;;;;;5112452;28;20031;-61
2024/04/06 05:57:49;;;;;;;2.70;0.70;;;;;;;;;;5114281;27;20043;-59
2024/04/06 06:00:15;;;;;;;1.52;0.70;;;;;;;;;;5115046;27;20130;-59
2024/04/06 06:02:41;;;;;;;2.10;0.80;;;;;;;;;;5112755;28;20043;-60
2024/04/06 06:05:06;;;;;;;4.10;0.80;;;;;;;;;;5112644;28;20023;-61
2024/04/06 06:07:32;;;;;;;1.33;0.70;;;;;;;;;;5112887;28;20085;-58
2024/04/06 06:09:57;;;;;;;2.15;0.88;;;;;;;;;;5112906;28;20122;-55
2024/04/06 06:12:24;;;;;;;2.00;0.80;;;;;;;;;;5112599;28;20028;-60
2024/04/06 06:14:50;;;;;;;3.33;0.98;;;;;;;;;;5112496;28;20069;-58
2024/04/06 06:17:15;;;;;;;1.30;0.70;;;;;;;;;;5113198;28;20036;-58
2024/04/06 06:19:41;;;;;;;1.38;0.80;;;;;;;;;;5112159;28;20031;-49
2024/04/06 06:22:06;;;;;;;1.33;0.80;;;;;;;;;;5112829;28;20031;-48
2024/04/06 06:24:31;;;;;;;2.00;0.80;;;;;;;;;;5112545;28;20265;-51
2024/04/06 06:26:57;;;;;;;2.28;0.80;;;;;;;;;;5111733;28;20474;-48
2024/04/06 06:29:22;;;;;;;1.48;0.70;;;;;;;;;;5110842;28;20037;-49
2024/04/06 06:31:48;;;;;;;2.08;1.10;;;;;;;;;;5110775;28;20115;-49
2024/04/06 06:34:13;;;;;;;2.17;0.60;;;;;;;;;;5112681;28;20115;-51
2024/04/06 06:36:39;;;;;;;2.00;0.80;;;;;;;;;;5111932;28;20110;-52
2024/04/06 06:39:04;;;;;;;1.60;0.80;;;;;;;;;;5112398;28;20429;-47
2024/04/06 06:41:29;;;;;;;1.95;0.80;;;;;;;;;;5111900;28;20066;-52
2024/04/06 06:43:55;;;;;;;1.73;0.80;;;;;;;;;;5111638;28;20092;-49
2024/04/06 06:46:20;;;;;;;2.35;0.80;;;;;;;;;;5111971;28;20043;-49
2024/04/06 06:48:45;;;;;;;1.80;0.80;;;;;;;;;;5111982;28;20557;-52
2024/04/06 06:51:11;;;;;;;2.42;0.80;;;;;;;;;;5111777;28;20406;-52
2024/04/06 06:53:36;;;;;;;1.13;0.60;;;;;;;;;;5112088;28;20504;-51
2024/04/06 06:56:02;;;;;;;3.22;1.15;;;;;;;;;;5111222;28;20084;-50
2024/04/06 06:58:27;;;;;;;1.63;0.80;;;;;;;;;;5112491;27;20035;-49
2024/04/06 07:00:52;;;;;;;2.22;0.88;;;;;;;;;;5111557;28;20047;-60
2024/04/06 07:03:18;;;;;;;2.05;0.90;;;;;;;;;;5112309;28;20035;-60
2024/04/06 07:05:43;;;;;;;3.15;1.00;;;;;;;;;;5111425;28;20040;-57
2024/04/06 07:08:08;;;;;;;1.60;0.77;;;;;;;;;;5111349;27;20066;-61
2024/04/06 07:10:38;;;;;;;1.98;1.00;;;;;;;;;;5110763;28;20024;-60
2024/04/06 07:13:03;;;;;;;2.80;1.15;;;;;;;;;;5110576;28;20046;-59
2024/04/06 07:15:29;;;;;;;2.45;1.00;;;;;;;;;;5111074;28;20036;-62
2024/04/06 07:17:54;;;;;;;1.92;0.90;;;;;;;;;;5111359;28;20069;-52
2024/04/06 07:20:19;;;;;;;2.83;1.02;;;;;;;;;;5111518;28;20118;-52
2024/04/06 07:22:45;;;;;;;1.50;0.80;;;;;;;;;;5111109;28;20370;-50
2024/04/06 07:25:10;;;;;;;3.17;1.15;;;;;;;;;;5111296;28;20039;-52
2024/04/06 07:27:36;;;;;;;2.28;0.80;;;;;;;;;;5111314;28;20169;-52
2024/04/06 07:30:02;;;;;;;2.63;0.75;;;;;;;;;;5110615;28;20035;-50
2024/04/06 07:32:28;;;;;;;2.58;0.98;;;;;;;;;;5111223;28;20054;-52
2024/04/06 07:34:53;;;;;;;3.05;1.00;;;;;;;;;;5110808;28;20034;-49
2024/04/06 07:37:18;;;;;;;2.88;1.00;;;;;;;;;;5111340;28;20268;-53
2024/04/06 07:39:44;;;;;;;2.30;1.05;;;;;;;;;;5110712;28;20046;-51
2024/04/06 07:42:09;;;;;;;2.88;1.00;;;;;;;;;;5111117;28;20063;-50
2024/04/06 07:44:34;;;;;;;2.28;1.00;;;;;;;;;;5110699;28;20130;-53
2024/04/06 07:47:00;;;;;;;2.70;1.00;;;;;;;;;;5110632;28;20035;-47
2024/04/06 07:49:25;;;;;;;2.45;1.08;;;;;;;;;;5110999;28;20048;-52
2024/04/06 07:51:50;;;;;;;2.15;0.93;;;;;;;;;;5111351;28;20080;-53
2024/04/06 07:54:16;;;;;;;5.95;1.05;;;;;;;;;;5110901;28;20097;-51
2024/04/06 07:56:42;;;;;;;2.92;1.00;;;;;;;;;;5110534;28;20035;-49
2024/04/06 07:59:07;;;;;;;2.75;1.00;;;;;;;;;;5114638;27;20645;-51
2024/04/06 08:01:33;;;;;;;1.90;0.90;;;;;;;;;;5110614;28;20127;-51
2024/04/06 08:03:58;;;;;;;2.17;1.00;;;;;;;;;;5110601;28;20050;-49
2024/04/06 08:06:23;;;;;;;2.53;1.17;;;;;;;;;;5110612;28;20118;-51
2024/04/06 08:08:49;;;;;;;1.90;0.85;;;;;;;;;;5111167;28;20078;-60
2024/04/06 08:11:15;;;;;;;2.42;1.10;;;;;;;;;;5105698;28;20067;-64
2024/04/06 08:13:40;;;;;;;2.83;1.20;;;;;;;;;;5109527;28;20027;-59
2024/04/06 08:16:05;;;;;;;2.05;1.20;;;;;;;;;;5110681;28;20035;-57
2024/04/06 08:18:31;;;;;;;1.95;0.88;;;;;;;;;;5109598;28;20406;-60
2024/04/06 08:20:56;;;;;;;2.72;1.00;;;;;;;;;;5110361;28;20090;-55
2024/04/06 08:23:21;;;;;;;5.90;1.58;;;;;;;;;;5110191;28;20046;-60
2024/04/06 08:25:53;;;;;;;2.33;0.98;;;;;;;;;;5109891;28;20047;-57
2024/04/06 08:28:18;;;;;;;3.28;1.00;;;;;;;;;;5110540;28;20047;-57
2024/04/06 08:30:44;;;;;;;2.47;1.00;;;;;;;;;;5109041;28;20036;-58
2024/04/06 08:33:09;;;;;;;5.63;1.30;;;;;;;;;;5110472;28;20044;-50
2024/04/06 08:35:37;;;;;;;4.18;1.20;;;;;;;;;;5108521;28;20031;-50
2024/04/06 08:38:04;;;;;;;3.17;1.20;;;;;;;;;;5107345;28;20080;-54
2024/04/06 08:40:29;;;;;;;2.85;1.10;;;;;;;;;;5108510;28;20044;-51
2024/04/06 08:42:56;;;;;;;3.00;1.15;;;;;;;;;;5107299;28;20036;-53
2024/04/06 08:45:25;;;;;;;2.55;1.10;;;;;;;;;;5105528;28;20126;-53
2024/04/06 08:47:52;;;;;;;2.92;1.20;;;;;;;;;;5108543;28;20050;-53
2024/04/06 08:50:17;;;;;;;3.53;1.08;;;;;;;;;;5098847;28;20051;-47
2024/04/06 08:52:43;;;;;;;4.05;1.25;;;;;;;;;;5109916;28;20032;-54
2024/04/06 08:55:09;;;;;;;2.72;1.05;;;;;;;;;;5111583;28;20069;-51
2024/04/06 08:57:39;;;;;;;2.20;1.00;;;;;;;;;;5113963;28;20096;-49
2024/04/06 09:00:12;;;;;;;2.72;1.00;;;;;;;;;;5119962;27;20036;-50
2024/04/06 09:02:37;;;;;;;4.80;1.30;;;;;;;;;;5112949;28;20066;-61
2024/04/06 09:05:03;;;;;;;2.40;1.10;;;;;;;;;;5113981;28;20067;-62
2024/04/06 09:07:29;;;;;;;3.95;1.25;;;;;;;;;;5113784;28;20423;-58
2024/04/06 09:09:54;;;;;;;3.55;1.15;;;;;;;;;;5114088;28;20035;-61
2024/04/06 09:12:20;;;;;;;4.03;1.10;;;;;;;;;;5113733;28;20043;-60
2024/04/06 09:14:46;;;;;;;3.97;1.20;;;;;;;;;;5113402;28;20027;-60
2024/04/06 09:17:17;;;;;;;3.03;1.35;;;;;;;;;;5113565;28;20061;-49
2024/04/06 09:19:42;;;;;;;3.15;1.00;;;;;;;;;;5113892;28;20027;-53
2024/04/06 09:22:08;;;;;;;4.70;1.33;;;;;;;;;;5113344;28;20039;-50
2024/04/06 09:24:34;;;;;;;3.97;1.20;;;;;;;;;;5106330;28;20396;-59
2024/04/06 09:27:11;;;;;;;4.28;1.15;;;;;;;;;;5113444;28;20023;-59
2024/04/06 09:29:37;;;;;;;4.03;1.20;;;;;;;;;;5112785;28;20051;-57
2024/04/06 09:32:03;;;;;;;2.30;1.10;;;;;;;;;;5113275;28;20119;-57
2024/04/06 09:34:29;;;;;;;4.43;1.20;;;;;;;;;;5113629;28;20442;-61
2024/04/06 09:37:01;;;;;;;4.05;1.20;;;;;;;;;;5113156;27;20071;-52
2024/04/06 09:39:28;;;;;;;5.25;1.38;;;;;;;;;;5112504;28;20039;-49
2024/04/06 09:41:54;;;;;;;3.55;1.17;;;;;;;;;;5111830;28;20509;-49
2024/04/06 09:44:19;;;;;;;4.47;1.10;;;;;;;;;;5129176;27;20043;-54
2024/04/06 09:46:46;;;;;;;2.72;1.00;;;;;;;;;;5112734;28;20023;-49
2024/04/06 09:49:12;;;;;;;2.50;1.10;;;;;;;;;;5111319;28;20607;-53
2024/04/06 09:51:37;;;;;;;5.82;1.30;;;;;;;;;;5112691;28;20478;-52
2024/04/06 09:54:03;;;;;;;3.55;1.15;;;;;;;;;;5111893;28;20038;-56
2024/04/06 09:56:28;;;;;;;2.70;1.13;;;;;;;;;;5111475;28;20080;-59
2024/04/06 09:58:54;;;;;;;3.05;1.10;;;;;;;;;;5117466;27;20459;-59
2024/04/06 10:01:19;;;;;;;4.72;1.23;;;;;;;;;;5111802;28;20066;-59
2024/04/06 10:03:48;;;;;;;2.92;1.27;;;;;;;;;;5111624;28;20019;-60
2024/04/06 10:06:18;;;;;;;2.90;1.20;;;;;;;;;;5111880;28;20090;-59
2024/04/06 10:08:50;;;;;;;3.90;1.30;;;;;;;;;;5111682;27;20601;-51
2024/04/06 10:11:27;;;;;;;4.75;1.35;;;;;;;;;;5112651;28;20410;-51
2024/04/06 10:14:01;;;;;;;2.67;1.00;;;;;;;;;;5128621;27;20051;-48
2024/04/06 10:16:27;;;;;;;3.55;1.35;;;;;;;;;;5112710;28;20114;-50
2024/04/06 10:18:56;;;;;;;2.38;1.10;;;;;;;;;;5127591;27;20234;-54
2024/04/06 10:21:26;;;;;;;3.80;1.00;;;;;;;;;;5107383;28;20363;-53
2024/04/06 10:23:53;;;;;;;3.00;1.10;;;;;;;;;;5112655;28;20040;-49
2024/04/06 10:26:20;;;;;;;2.38;1.10;;;;;;;;;;5111746;28;20035;-49
2024/04/06 10:28:47;;;;;;;3.53;1.20;;;;;;;;;;5112597;28;20066;-51
2024/04/06 10:31:12;;;;;;;2.70;1.13;;;;;;;;;;5110081;28;20047;-50
2024/04/06 10:33:38;;;;;;;3.55;1.33;;;;;;;;;;5112094;28;20031;-50
2024/04/06 10:36:10;;;;;;;2.22;0.90;;;;;;;;;;5110673;28;20603;-49
2024/04/06 10:38:38;;;;;;;5.75;1.23;;;;;;;;;;5110894;28;20035;-50
2024/04/06 10:41:03;;;;;;;3.92;1.17;;;;;;;;;;5111924;28;20103;-50
2024/04/06 10:43:30;;;;;;;3.63;1.10;;;;;;;;;;5112207;28;20106;-50
2024/04/06 10:45:55;;;;;;;4.15;1.20;;;;;;;;;;5110879;28;20047;-50
2024/04/06 10:48:20;;;;;;;3.15;1.08;;;;;;;;;;5111715;27;20031;-52
2024/04/06 10:50:46;;;;;;;4.15;1.00;;;;;;;;;;5090176;28;20056;-51
2024/04/06 10:53:11;;;;;;;3.70;1.48;;;;;;;;;;5105246;28;20539;-52
2024/04/06 10:55:37;;;;;;;3.53;1.40;;;;;;;;;;5110768;28;20020;-53
2024/04/06 10:58:03;;;;;;;3.53;1.10;;;;;;;;;;5114225;27;20031;-52
2024/04/06 11:00:30;;;;;;;3.88;1.65;;;;;;;;;;5111872;28;20136;-58
2024/04/06 11:03:01;;;;;;;3.53;1.40;;;;;;;;;;5111866;28;20035;-60
2024/04/06 11:05:26;;;;;;;4.32;1.30;;;;;;;;;;5127290;27;20034;-60
2024/04/06 11:07:51;;;;;;;4.13;1.30;;;;;;;;;;5111549;28;20039;-59
2024/04/06 11:10:17;;;;;;;3.90;1.23;;;;;;;;;;5110534;28;20367;-58
2024/04/06 11:12:43;;;;;;;4.47;1.30;;;;;;;;;;5111418;28;20027;-49
2024/04/06 11:15:11;;;;;;;3.20;1.10;;;;;;;;;;5111320;28;20148;-52
2024/04/06 11:17:36;;;;;;;3.47;1.13;;;;;;;;;;5109617;28;20031;-53
2024/04/06 11:20:04;;;;;;;3.30;1.00;;;;;;;;;;5111450;28;20042;-52
2024/04/06 11:22:30;;;;;;;3.00;1.20;;;;;;;;;;5110410;28;20067;-50
2024/04/06 11:24:56;;;;;;;2.70;0.90;;;;;;;;;;5111536;28;20089;-50
2024/04/06 11:27:22;;;;;;;4.40;1.20;;;;;;;;;;5110133;28;20390;-53
2024/04/06 11:29:49;;;;;;;3.30;1.10;;;;;;;;;;5110808;28;20494;-52
2024/04/06 11:32:23;;;;;;;3.17;1.00;;;;;;;;;;5111345;28;20027;-51
2024/04/06 11:34:50;;;;;;;3.38;1.00;;;;;;;;;;5111207;28;20058;-50
2024/04/06 11:37:16;;;;;;;2.25;0.90;;;;;;;;;;5111239;28;20043;-49
2024/04/06 11:39:41;;;;;;;5.63;1.30;;;;;;;;;;5108567;28;20035;-50
2024/04/06 11:42:07;;;;;;;2.88;1.08;;;;;;;;;;5111144;28;20043;-53
2024/04/06 11:44:33;;;;;;;3.42;1.13;;;;;;;;;;5110763;28;20040;-54
2024/04/06 11:46:58;;;;;;;3.63;1.15;;;;;;;;;;5111001;28;20455;-49
2024/04/06 11:49:24;;;;;;;3.67;1.10;;;;;;;;;;5109712;28;20050;-49
2024/04/06 11:51:49;;;;;;;3.42;1.00;;;;;;;;;;5110690;28;20112;-52
2024/04/06 11:54:14;;;;;;;3.92;1.20;;;;;;;;;;5110655;28;20387;-52
2024/04/06 11:56:40;;;;;;;4.97;1.40;;;;;;;;;;5111013;28;20559;-52
2024/04/06 11:59:05;;;;;;;3.17;0.98;;;;;;;;;;5118224;27;20584;-50
2024/04/06 12:01:30;;;;;;;4.75;1.17;;;;;;;;;;5110392;28;20046;-50
2024/04/06 12:03:55;;;;;;;3.88;1.25;;;;;;;;;;5109534;28;20031;-51
2024/04/06 12:06:23;;;;;;;3.08;1.00;;;;;;;;;;5110798;28;20028;-52
2024/04/06 12:08:50;;;;;;;2.72;0.90;;;;;;;;;;5110080;28;20085;-51
2024/04/06 12:11:15;;;;;;;3.95;1.30;;;;;;;;;;5111014;28;20023;-51
2024/04/06 12:13:40;;;;;;;4.93;1.33;;;;;;;;;;5110726;28;20112;-52
2024/04/06 12:16:06;;;;;;;4.15;1.33;;;;;;;;;;5110534;28;20047;-50
2024/04/06 12:18:31;;;;;;;4.70;1.50;;;;;;;;;;5110648;28;20036;-49
2024/04/06 12:20:56;;;;;;;3.20;1.02;;;;;;;;;;5110690;28;20031;-51
2024/04/06 12:23:23;;;;;;;3.70;1.40;;;;;;;;;;5110365;28;20043;-54
2024/04/06 12:25:48;;;;;;;3.28;1.15;;;;;;;;;;5110401;28;20265;-47
2024/04/06 12:28:14;;;;;;;2.85;1.10;;;;;;;;;;5110662;28;20032;-49
2024/04/06 12:30:39;;;;;;;4.75;1.27;;;;;;;;;;5114312;28;20109;-50
2024/04/06 12:33:04;;;;;;;2.17;1.23;;;;;;;;;;5114330;28;20055;-47
2024/04/06 12:35:29;;;;;;;4.97;1.10;;;;;;;;;;5114508;28;20066;-51
2024/04/06 12:37:55;;;;;;;3.50;1.20;;;;;;;;;;5114657;28;20123;-50
2024/04/06 12:40:20;;;;;;;2.40;1.00;;;;;;;;;;5113035;28;20063;-48
2024/04/06 12:42:45;;;;;;;6.10;1.30;;;;;;;;;;5114179;28;20043;-51
2024/04/06 12:45:11;;;;;;;3.92;1.17;;;;;;;;;;5114574;28;20046;-49
2024/04/06 12:47:36;;;;;;;3.55;1.23;;;;;;;;;;5114164;28;20032;-53
2024/04/06 12:50:02;;;;;;;3.33;1.10;;;;;;;;;;5114067;27;20083;-52
2024/04/06 12:52:27;;;;;;;4.32;1.13;;;;;;;;;;5110228;28;20069;-58
2024/04/06 12:54:52;;;;;;;2.70;1.10;;;;;;;;;;5112256;28;20031;-58
2024/04/06 12:57:36;;;;;;;2.42;1.08;;;;;;;;;;5113241;28;20031;-60
2024/04/06 13:00:06;;;;;;;;;;;;;;;;;;5119434;27;20040;-58
2024/04/06 13:02:32;;;;;;;4.85;1.38;;;;;;;;;;5113749;28;20370;-58
2024/04/06 13:04:57;;;;;;;3.63;1.20;;;;;;;;;;5113357;28;20035;-56
2024/04/06 13:07:23;;;;;;;2.45;1.00;;;;;;;;;;5114178;28;20093;-59
2024/04/06 13:09:54;;;;;;;3.10;1.20;;;;;;;;;;5114021;28;20503;-59
2024/04/06 13:12:23;;;;;;;4.63;1.20;;;;;;;;;;5103522;28;20664;-57
2024/04/06 13:14:48;;;;;;;3.40;1.23;;;;;;;;;;5113768;28;20043;-60
2024/04/06 13:17:13;;;;;;;3.30;1.05;;;;;;;;;;5113845;28;20382;-60
2024/04/06 13:19:39;;;;;;;3.67;1.35;;;;;;;;;;5113323;28;20031;-59
2024/04/06 13:22:05;;;;;;;4.25;1.13;;;;;;;;;;5113906;28;20032;-50
2024/04/06 13:24:30;;;;;;;4.63;1.40;;;;;;;;;;5113814;28;20039;-52
2024/04/06 13:26:57;;;;;;;3.63;1.38;;;;;;;;;;5113055;28;20089;-54
2024/04/06 13:29:22;;;;;;;4.28;1.30;;;;;;;;;;5113441;27;20082;-53
2024/04/06 13:31:48;;;;;;;2.40;1.08;;;;;;;;;;5113576;28;20067;-51
2024/04/06 13:34:13;;;;;;;3.85;1.17;;;;;;;;;;5113502;28;20016;-52
2024/04/06 13:36:39;;;;;;;3.35;1.20;;;;;;;;;;5113069;28;20441;-52
2024/04/06 13:39:07;;;;;;;3.15;1.05;;;;;;;;;;5113522;28;20040;-54
2024/04/06 13:41:32;;;;;;;3.10;1.00;;;;;;;;;;5112592;28;20100;-49
2024/04/06 13:43:57;;;;;;;3.22;1.13;;;;;;;;;;5112972;28;20467;-50
2024/04/06 13:46:23;;;;;;;4.43;1.20;;;;;;;;;;5113020;28;20679;-55
2024/04/06 13:48:48;;;;;;;3.42;1.10;;;;;;;;;;5113251;28;20096;-52
2024/04/06 13:51:13;;;;;;;3.45;1.08;;;;;;;;;;5112866;28;20120;-53
2024/04/06 13:53:39;;;;;;;3.47;1.15;;;;;;;;;;5113015;28;20576;-53
2024/04/06 13:56:05;;;;;;;3.78;1.10;;;;;;;;;;5109802;28;20031;-50
2024/04/06 13:58:30;;;;;;;2.97;1.30;;;;;;;;;;5118836;27;20066;-54
2024/04/06 14:00:56;;;;;;;4.53;1.40;;;;;;;;;;5112795;28;20039;-54
2024/04/06 14:03:22;;;;;;;4.85;1.10;;;;;;;;;;5112968;28;20031;-53
2024/04/06 14:05:48;;;;;;;3.95;1.20;;;;;;;;;;5113349;27;20050;-49
2024/04/06 14:08:14;;;;;;;4.63;1.25;;;;;;;;;;5112108;28;20592;-49
2024/04/06 14:10:40;;;;;;;2.80;1.05;;;;;;;;;;5113144;28;20053;-52
2024/04/06 14:13:05;;;;;;;4.30;1.52;;;;;;;;;;5112749;28;20041;-50
2024/04/06 14:15:31;;;;;;;3.65;1.02;;;;;;;;;;5112417;28;20035;-55
2024/04/06 14:17:56;;;;;;;3.38;1.15;;;;;;;;;;5111442;28;20089;-50
2024/04/06 14:20:22;;;;;;;6.57;1.50;;;;;;;;;;5112810;28;20074;-55
2024/04/06 14:22:47;;;;;;;3.45;1.20;;;;;;;;;;5112319;28;20035;-53
2024/04/06 14:25:12;;;;;;;3.15;1.13;;;;;;;;;;5112411;28;20447;-53
2024/04/06 14:27:39;;;;;;;3.67;1.20;;;;;;;;;;5112449;28;20514;-52
2024/04/06 14:30:28;;;;;;;4.05;1.30;;;;;;;;;;5094036;28;20540;-50
2024/04/06 14:32:54;;;;;;;3.95;1.13;;;;;;;;;;5112113;28;20038;-50
2024/04/06 14:35:20;;;;;;;4.10;1.08;;;;;;;;;;5112384;28;20054;-53